createdAt,value
2022-08-12T00:02:33.913Z,101930
2022-08-12T00:07:33.890Z,101930
2022-08-12T00:12:33.892Z,101930
2022-08-12T00:17:33.887Z,101930
2022-08-12T00:22:33.948Z,101930
2022-08-12T00:27:43.628Z,101930
2022-08-12T00:32:35.982Z,101930
2022-08-12T00:37:33.991Z,101930
2022-08-12T00:47:33.894Z,101920
2022-08-12T00:52:33.910Z,101920
2022-08-12T01:07:33.900Z,101920
2022-08-12T01:12:33.902Z,101920
2022-08-12T01:17:33.914Z,101920
2022-08-12T01:22:34.250Z,101920
2022-08-12T01:37:33.923Z,101930
2022-08-12T01:42:33.923Z,101930
2022-08-12T01:47:33.932Z,101930
2022-08-12T01:52:33.932Z,101930
2022-08-12T01:57:58.770Z,101930
2022-08-12T02:02:33.927Z,101920
2022-08-12T02:07:33.937Z,101920
2022-08-12T02:17:55.479Z,101920
2022-08-12T02:22:33.939Z,101920
2022-08-12T02:27:33.945Z,101920
2022-08-12T02:32:33.955Z,101920
2022-08-12T02:42:33.953Z,101910
2022-08-12T02:48:00.078Z,101910
2022-08-12T03:07:56.114Z,101910
2022-08-12T03:12:34.427Z,101910
2022-08-12T03:17:33.963Z,101910
2022-08-12T03:27:33.973Z,101900
2022-08-12T03:32:36.208Z,101910
2022-08-12T03:42:34.538Z,101910
2022-08-12T03:47:33.978Z,101910
2022-08-12T03:52:33.981Z,101910
2022-08-12T03:57:33.975Z,101910
2022-08-12T04:07:33.998Z,101910
2022-08-12T04:12:34.095Z,101910
2022-08-12T04:17:33.991Z,101910
2022-08-12T04:22:33.984Z,101910
2022-08-12T04:37:58.471Z,101910
2022-08-12T04:42:33.999Z,101900
2022-08-12T04:47:33.998Z,101900
2022-08-12T04:52:35.009Z,101900
2022-08-12T05:02:34.217Z,101900
2022-08-12T05:12:34.033Z,101910
2022-08-12T05:17:34.010Z,101910
2022-08-12T05:37:34.031Z,101920
2022-08-12T05:42:34.692Z,101930
2022-08-12T05:47:36.708Z,101930
2022-08-12T05:52:34.033Z,101930
2022-08-12T05:57:34.036Z,101930
2022-08-12T06:02:34.034Z,101940
2022-08-12T06:08:00.592Z,101930
2022-08-12T06:12:34.056Z,101940
2022-08-12T06:17:34.035Z,101940
2022-08-12T06:22:34.040Z,101940
2022-08-12T06:27:34.049Z,101940
2022-08-12T06:32:34.610Z,101930
2022-08-12T06:37:34.060Z,101930
2022-08-12T06:42:34.070Z,101930
2022-08-12T06:52:34.063Z,101930
2022-08-12T06:58:05.341Z,101920
2022-08-12T07:07:34.057Z,101910
2022-08-12T07:12:34.061Z,101910
2022-08-12T07:17:34.068Z,101910
2022-08-12T07:22:34.076Z,101910
2022-08-12T07:27:35.040Z,101910
2022-08-12T07:32:34.076Z,101910
2022-08-12T07:37:34.077Z,101920
2022-08-12T07:42:34.077Z,101920
2022-08-12T07:47:34.081Z,101930
2022-08-12T07:52:34.100Z,101920
2022-08-12T07:57:34.082Z,101920
2022-08-12T08:02:34.111Z,101930
2022-08-12T08:07:34.092Z,101930
2022-08-12T08:12:34.099Z,101930
2022-08-12T08:17:34.100Z,101930
2022-08-12T08:27:34.100Z,101920
2022-08-12T08:37:37.073Z,101920
2022-08-12T08:42:34.105Z,101910
2022-08-12T08:47:34.101Z,101910
2022-08-12T08:57:43.057Z,101910
2022-08-12T09:02:34.105Z,101910
2022-08-12T09:07:52.027Z,101910
2022-08-12T09:17:41.999Z,101900
2022-08-12T09:28:04.296Z,101890
2022-08-12T09:33:03.907Z,101900
2022-08-12T09:37:58.591Z,101890
2022-08-12T09:42:43.499Z,101890
2022-08-12T09:47:34.144Z,101890
2022-08-12T09:52:34.143Z,101880
2022-08-12T09:58:46.933Z,101870
2022-08-12T10:02:44.670Z,101880
2022-08-12T10:07:39.936Z,101860
2022-08-12T10:12:34.135Z,101860
2022-08-12T10:17:34.148Z,101850
2022-08-12T10:22:37.060Z,101850
2022-08-12T10:27:39.568Z,101850
2022-08-12T10:32:42.954Z,101840
2022-08-12T10:38:35.751Z,101830
2022-08-12T10:42:34.162Z,101820
2022-08-12T10:48:16.090Z,101810
2022-08-12T10:52:37.861Z,101800
2022-08-12T10:58:14.138Z,101790
2022-08-12T11:04:25.444Z,101800
2022-08-12T11:08:36.035Z,101790
2022-08-12T11:12:55.505Z,101790
2022-08-12T11:17:52.640Z,101780
2022-08-12T11:22:34.268Z,101770
2022-08-12T11:32:38.743Z,101750
2022-08-12T11:37:58.099Z,101740
2022-08-12T11:42:34.160Z,101740
2022-08-12T11:47:34.156Z,101750
2022-08-12T11:52:56.300Z,101750
2022-08-12T11:58:32.215Z,101740
2022-08-12T12:02:34.424Z,101730
2022-08-12T12:08:37.532Z,101720
2022-08-12T12:12:34.176Z,101720
2022-08-12T12:17:38.334Z,101720
2022-08-12T12:22:34.187Z,101710
2022-08-12T12:28:03.664Z,101710
2022-08-12T12:32:34.190Z,101700
2022-08-12T12:38:03.558Z,101700
2022-08-12T12:42:52.146Z,101690
2022-08-12T12:47:34.211Z,101700
2022-08-12T12:52:34.220Z,101700
2022-08-12T12:57:36.207Z,101690
2022-08-12T13:02:34.226Z,101680
2022-08-12T13:07:49.295Z,101680
2022-08-12T13:12:34.236Z,101670
2022-08-12T13:18:00.840Z,101670
2022-08-12T13:22:34.340Z,101660
2022-08-12T13:27:34.510Z,101650
2022-08-12T13:32:34.246Z,101650
2022-08-12T13:42:34.250Z,101650
2022-08-12T13:47:34.241Z,101650
2022-08-12T13:52:34.242Z,101650
2022-08-12T13:57:34.252Z,101650
2022-08-12T14:02:34.250Z,101640
2022-08-12T14:07:46.071Z,101640
2022-08-12T14:12:34.255Z,101630
2022-08-12T14:17:38.032Z,101630
2022-08-12T14:22:34.260Z,101630
2022-08-12T14:28:02.634Z,101620
2022-08-12T14:32:34.812Z,101610
2022-08-12T14:37:56.444Z,101610
2022-08-12T14:47:35.473Z,101610
2022-08-12T14:53:42.354Z,101600
2022-08-12T14:58:09.529Z,101600
2022-08-12T15:02:34.294Z,101610
2022-08-12T15:07:50.128Z,101600
2022-08-12T15:12:34.289Z,101600
2022-08-12T15:22:37.104Z,101590
2022-08-12T15:28:04.341Z,101580
2022-08-12T15:32:34.298Z,101590
2022-08-12T15:38:08.014Z,101580
2022-08-12T15:42:34.302Z,101570
2022-08-12T15:47:48.260Z,101580
2022-08-12T15:52:34.318Z,101580
2022-08-12T15:57:34.381Z,101580
2022-08-12T16:12:34.325Z,101570
2022-08-12T16:18:23.648Z,101570
2022-08-12T16:22:34.326Z,101570
2022-08-12T16:27:38.529Z,101570
2022-08-12T16:32:34.326Z,101560
2022-08-12T16:38:25.708Z,101560
2022-08-12T16:47:57.784Z,101550
2022-08-12T16:52:34.336Z,101560
2022-08-12T16:57:34.925Z,101560
2022-08-12T17:02:34.508Z,101560
2022-08-12T17:12:37.324Z,101560
2022-08-12T17:22:34.352Z,101550
2022-08-12T17:32:34.358Z,101550
2022-08-12T17:37:34.348Z,101560
2022-08-12T17:42:35.555Z,101550
2022-08-12T17:47:35.778Z,101550
2022-08-12T17:57:34.399Z,101550
2022-08-12T18:02:34.373Z,101550
2022-08-12T18:07:36.000Z,101550
2022-08-12T18:12:35.504Z,101550
2022-08-12T18:17:34.737Z,101550
2022-08-12T18:22:34.371Z,101560
2022-08-12T18:27:44.908Z,101560
2022-08-12T18:37:41.682Z,101560
2022-08-12T18:47:46.703Z,101580
2022-08-12T18:52:34.385Z,101580
2022-08-12T18:58:06.825Z,101580
2022-08-12T19:07:49.470Z,101590
2022-08-12T19:12:34.629Z,101590
2022-08-12T19:17:47.612Z,101590
2022-08-12T19:22:34.410Z,101590
2022-08-12T19:27:34.390Z,101600
2022-08-12T19:32:34.464Z,101600
2022-08-12T19:38:02.564Z,101610
2022-08-12T19:42:35.497Z,101620
2022-08-12T19:52:34.421Z,101630
2022-08-12T19:57:34.407Z,101630
2022-08-12T20:02:34.583Z,101630
2022-08-12T20:07:42.841Z,101630
2022-08-12T20:12:34.548Z,101630
2022-08-12T20:17:36.329Z,101630
2022-08-12T20:22:34.441Z,101630
2022-08-12T20:28:05.211Z,101630
2022-08-12T20:32:37.491Z,101640
2022-08-12T20:38:07.181Z,101640
2022-08-12T20:42:34.434Z,101640
2022-08-12T20:52:35.135Z,101640
2022-08-12T20:57:38.461Z,101640
2022-08-12T21:02:34.655Z,101640
2022-08-12T21:07:34.451Z,101640
2022-08-12T21:12:34.651Z,101640
2022-08-12T21:18:00.767Z,101640
2022-08-12T21:22:34.551Z,101640
2022-08-12T21:27:57.719Z,101640
2022-08-12T21:37:37.364Z,101640
2022-08-12T21:42:34.457Z,101640
2022-08-12T21:47:34.452Z,101640
2022-08-12T21:57:36.442Z,101640
2022-08-12T22:07:43.060Z,101640
2022-08-12T22:12:34.487Z,101640
2022-08-12T22:27:34.485Z,101640
2022-08-12T22:32:34.805Z,101650
2022-08-12T22:37:34.496Z,101640
2022-08-12T22:42:34.504Z,101650
2022-08-12T22:52:34.496Z,101650
2022-08-12T23:07:36.360Z,101640
2022-08-12T23:12:34.508Z,101650
2022-08-12T23:17:40.933Z,101650
2022-08-12T23:22:36.482Z,101650
2022-08-12T23:27:51.238Z,101650
2022-08-12T23:32:36.026Z,101650
2022-08-12T23:37:47.171Z,101650
2022-08-12T23:47:34.516Z,101650
2022-08-12T23:52:35.024Z,101650
